• Join FlightAware (Why Join?)
  • Login
  • US Flag 
 
05:12AM EST


 

Airport Tracker/Info


-or-


 

Live Flight TrackerFlight Track Log ✈ ASQ4253 ✈ 21-Jun-2013 ✈ KIAH - KCAE

Flight Track Log - Related Links

Times and Time Zones

All times are in EDT time to prevent confusion due to time zone crossing. See the ASQ4253 flight status page for this flight to view local times or setup timezone preferences in your user account.

Time Position Orientation Groundspeed Altitude Reporting Facility
EDT Latitude Longitude Course Direction KTS MPH feet Rate Location/Type
04:44PM 29.9594 -95.3414 95° East 166 191 600  Level Houston Center
04:45PM 29.9336 -95.2675 112° Southeast 248 285 2,300 1,500 Climbing Houston Center
04:46PM 29.9289 -95.2322 99° East 236 272 3,400 1,080 Climbing Houston Center
04:47PM 29.9322 -95.1464 87° East 276 318 4,100 840 Climbing Houston Center
04:48PM 29.9433 -95.0625 81° East 270 311 5,200 1,860 Climbing Houston Center
04:49PM 29.9014 -94.6833 95° East  Level FlightAware Approximate
04:49PM 29.9311 -94.9594 98° East 269 310 8,000  Level Houston Center
04:50PM 29.9217 -94.8703 97° East 276 318 10,100 1,620 Climbing Houston Center
04:51PM 29.9117 -94.7750 97° East 290 334 11,400 1,080 Climbing Houston Center
04:52PM 29.9006 -94.6694 97° East 323 372 12,400 960 Climbing Houston Center
04:53PM 29.8878 -94.5553 97° East 354 407 13,400 960 Climbing Houston Center
04:54PM 29.8758 -94.4386 97° East 364 419 14,500 1,200 Climbing Houston Center
04:55PM 29.8806 -94.2964 88° East 367 422 16,000 1,380 Climbing Houston Center
04:56PM 29.8914 -94.1806 84° East 364 419 17,400 1,020 Climbing Houston Center
04:57PM 29.9325 -94.0803 65° Northeast 356 410 18,200 840 Climbing Houston Center
04:58PM 29.9753 -93.9744 65° Northeast 364 419 19,200 960 Climbing Houston Center
04:59PM 30.0153 -93.8644 67° East 371 427 20,200 1,020 Climbing Houston Center
05:00PM 30.0658 -93.7319 66° East 378 435 21,400 960 Climbing Houston Center
05:02PM 30.1178 -93.5914 67° East  Level Estimated
05:03PM 30.1833 -93.3900 67° East 388 447 24,400  Level Houston Center
05:04PM 30.2319 -93.2553 67° East 385 443 25,600 1,020 Climbing Houston Center
05:06PM 30.2656 -93.1378 72° East 390 449 26,600 960 Climbing Houston Center
05:07PM 30.2844 -93.0150 80° East 392 451 27,600 960 Climbing Houston Center
05:08PM 30.2975 -92.8922 83° East 388 447 28,600 960 Climbing Houston Center
05:09PM 30.4265 -92.7452 67° East  Level Estimated
05:09PM 30.3122 -92.7669 82° East 393 452 29,600  Level Houston Center
05:10PM 30.3281 -92.6147 83° East 397 457 30,800 1,020 Climbing Houston Center
05:11PM 30.3428 -92.4869 82° East 401 461 31,800 960 Climbing Houston Center
05:12PM 30.3558 -92.3578 83° East 405 466 32,800 960 Climbing Houston Center
05:13PM 30.3706 -92.2300 82° East 409 471 33,800 1,020 Climbing Houston Center
05:14PM 30.3864 -92.0758 83° East 407 468 35,000 540 Climbing Houston Center
05:15PM 30.4000 -91.9442 83° East 413 475 35,000  Level Houston Center
05:16PM 30.4156 -91.8044 83° East 436 502 35,000  Level Houston Center
05:17PM 30.4300 -91.6714 83° East 451 519 35,000  Level Houston Center
05:18PM 30.4478 -91.4958 83° East 458 527 35,000  Level Houston Center
05:19PM 30.4625 -91.3539 83° East 446 513 35,000  Level Houston Center
05:20PM 30.4764 -91.2131 83° East 442 509 35,000  Level Houston Center
05:21PM 30.4903 -91.0711 83° East 444 511 35,000  Level Houston Center
05:22PM 30.5047 -90.9272 83° East 449 517 35,000  Level Houston Center
05:23PM 30.5175 -90.7833 84° East 449 517 35,000  Level Houston Center
05:24PM 30.5344 -90.6089 84° East 454 522 35,000 -60 Level Houston Center
05:25PM 30.5489 -90.4625 83° East 456 525 34,900  Descending Houston Center
05:26PM 30.5619 -90.3169 84° East 454 522 35,000  Climbing Houston Center
05:27PM 30.5764 -90.1725 83° East 452 520 35,000  Level Houston Center
05:28PM 30.6278 -90.0425 65° Northeast 440 506 35,000  Level Houston Center
05:29PM 30.6844 -89.9156 63° Northeast 439 505 35,000  Level Houston Center
05:30PM 30.7408 -89.7894 62° Northeast 435 501 35,000  Level Houston Center
05:31PM 30.8081 -89.6386 63° Northeast 434 499 35,000  Level Houston Center
05:32PM 30.8631 -89.5133 63° Northeast 435 501 35,000  Level Houston Center
05:33PM 30.9194 -89.3881 62° Northeast 435 501 35,000  Level Houston Center
05:35PM 30.9747 -89.2617 63° Northeast 438 504 35,000  Level Houston Center
05:36PM 31.0297 -89.1336 63° Northeast 438 504 35,000  Level Houston Center
05:37PM 31.0853 -89.0075 63° Northeast 439 505 35,000  Level Houston Center
05:38PM 31.1450 -88.8717 63° Northeast 440 506 35,000  Level Houston Center
05:39PM 31.2014 -88.7439 63° Northeast 440 506 35,000  Level Houston Center
05:40PM 31.2578 -88.6136 63° Northeast 444 511 35,000  Level Houston Center
05:41PM 31.3267 -88.4561 63° Northeast 449 517 35,000  Level Houston Center
05:42PM 31.3850 -88.3250 62° Northeast 449 517 35,000  Level Houston Center
05:43PM 31.4425 -88.1911 63° Northeast 454 522 35,000  Level Houston Center
05:44PM 31.4983 -88.0556 64° Northeast 460 529 35,000  Level Houston Center
05:45PM 31.5550 -87.9222 63° Northeast 457 526 35,000  Level Houston Center
05:46PM 31.6086 -87.7861 65° Northeast 462 532 35,000  Level Houston Center
05:47PM 31.6481 -87.6419 72° East 452 520 35,000  Level Atlanta Center
05:48PM 31.6836 -87.4969 74° East 457 526 35,000  Level Atlanta Center
05:49PM 31.7231 -87.3494 73° East 457 526 35,000  Level Atlanta Center
05:50PM 31.7608 -87.1897 74° East 457 526 35,000  Level Atlanta Center
05:51PM 31.8000 -87.0419 73° East 457 526 35,000  Level Atlanta Center
05:52PM 31.8511 -86.9019 67° East 462 532 35,000  Level Atlanta Center
05:53PM 31.9067 -86.7617 65° Northeast 467 537 35,000  Level Atlanta Center
05:54PM 31.9617 -86.6214 65° Northeast 467 537 35,000  Level Atlanta Center
05:55PM 32.0164 -86.4981 62° Northeast 472 543 35,000  Level Atlanta Center
05:56PM 32.0714 -86.3575 65° Northeast 472 543 35,000  Level Atlanta Center
05:57PM 32.1239 -86.2167 66° East 467 537 35,000  Level Atlanta Center
05:58PM 32.1828 -86.0658 65° Northeast 460 529 35,000  Level Atlanta Center
05:59PM 32.2203 -85.9417 70° East 453 521 35,000  Level Atlanta Center
06:00PM 32.2744 -85.8075 64° Northeast 447 514 35,000  Level Atlanta Center
06:01PM 32.3267 -85.6661 66° East 454 522 35,000  Level Atlanta Center
06:02PM 32.3783 -85.5317 66° East 454 522 35,000  Level Atlanta Center
06:03PM 32.4300 -85.3922 66° East 449 517 35,000  Level Atlanta Center
06:04PM 32.4794 -85.2553 67° East 459 528 35,000  Level Atlanta Center
06:05PM 32.5372 -85.1181 63° Northeast 459 528 35,000  Level Atlanta Center
06:06PM 32.5822 -84.9756 69° East 459 528 35,000  Level Atlanta Center
06:07PM 32.6375 -84.8381 64° Northeast 459 528 35,000  Level Atlanta Center
06:08PM 32.6883 -84.7053 66° East 446 513 35,000  Level Atlanta Center
06:09PM 32.7411 -84.5647 66° East 451 519 35,000 -60 Level Atlanta Center
06:10PM 32.7958 -84.4094 67° East 456 525 34,900 -540 Descending Atlanta Center
06:11PM 32.8486 -84.2689 66° East 456 525 34,000 -900 Descending Atlanta Center
06:12PM 32.8925 -84.1453 67° East 451 519 33,200 -900 Descending Atlanta Center
06:13PM 32.9425 -84.0067 67° East 446 513 32,200 -960 Descending Atlanta Center
06:14PM 32.9925 -83.8631 67° East 453 521 31,300 -1,020 Descending Atlanta Center
06:15PM 33.0467 -83.7217 65° Northeast 458 527 30,200 -1,440 Descending Atlanta Center
06:16PM 33.1003 -83.5653 68° East 458 527 28,500 -1,500 Descending Atlanta Center
06:17PM 33.1456 -83.4333 68° East 458 527 27,300 -1,380 Descending Atlanta Center
06:18PM 33.1950 -83.2867 68° East 465 535 25,800 -1,500 Descending Atlanta Center
06:19PM 33.2483 -83.1397 67° East 472 543 24,300 -1,500 Descending Atlanta Center
06:20PM 33.2931 -83.0000 69° East 472 543 22,900 -1,500 Descending Atlanta Center
06:21PM 33.3461 -82.8625 65° Northeast 448 516 21,400 -1,560 Descending Atlanta Center
06:22PM 33.3928 -82.7275 67° East 437 503 19,800 -1,560 Descending Atlanta Center
06:23PM 33.4353 -82.6000 68° East 423 487 18,300 -1,440 Descending Atlanta Center
06:24PM 33.4836 -82.4747 65° Northeast 416 479 17,000 -1,440 Descending Atlanta Center
06:25PM 33.5194 -82.3444 72° East 400 460 15,500 -1,500 Descending Atlanta Center
06:26PM 33.5619 -82.2339 65° Northeast 387 445 14,100 -1,320 Descending Atlanta Center
06:28PM 33.6639 -81.9419 67° East 365 420 11,000 -960 Descending Jacksonville Center
06:29PM 33.7025 -81.8267 68° East 365 420 10,900 -480 Descending Jacksonville Center
06:30PM 33.7331 -81.7364 68° East 345 397 10,100 -1,320 Descending Jacksonville Center
06:31PM 33.7636 -81.6508 67° East 306 352 8,300 -1,860 Descending Jacksonville Center
06:32PM 33.7919 -81.5681 68° East 283 326 6,400 -1,680 Descending Jacksonville Center
06:33PM 33.8203 -81.4853 68° East 265 305 5,000 -1,080 Descending Jacksonville Center
06:34PM 33.8761 -81.4542 25° Northeast 224 258 4,300 -900 Descending Jacksonville Center
06:35PM 33.9342 -81.4233 24° Northeast 215 247 3,300 -1,020 Descending Jacksonville Center
06:36PM 33.9669 -81.3600 58° Northeast 220 253 2,300 -1,020 Descending Jacksonville Center